Terminal Aerodrome Forecast
Issued by NWS

Home | Current Version | Previous Version | Text Only | Print | Product List | Glossary On
Versions: 1 2 3 4 5 6 7 8 9 10 11 12
000
FTAK31 PAFA 232333
TAFAGA
TAF
PAGA 232333Z 2400/2424 35004KT P6SM SCT020 BKN070
     FM240200 VRB04KT 6SM -SN BR SCT010 BKN020 OVC035
     FM240500 10006KT 3SM -SN BR SCT010 OVC020
     FM241100 10007KT 6SM -SN BR SCT020 BKN035 OVC050
     FM241700 11008KT 5SM -SN BR SCT010 BKN020 OVC035=

USA.gov is the U.S. government's official web portal to all federal, state and local government web resources and services.